Time;durP1;ratioP1;P1;durP2;ratioP2;P2;SDS_P1;SDS_P2;PMS_P1;PMS_P2;Temp;Humidity;BMP_temperature;BMP_pressure;BME280_temperature;BME280_humidity;BME280_pressure;Samples;Min_cycle;Max_cycle;Signal;HPM_P1;HPM_P2
2021/05/16 00:00:53;;;;;;;3.65;1.85;;;14.80;82.80;;;;;;5053905;28;20416;-65
2021/05/16 00:03:38;;;;;;;2.45;1.75;;;14.80;83.10;;;;;;5069779;28;20066;-65
2021/05/16 00:06:22;;;;;;;4.35;1.92;;;14.80;83.20;;;;;;5082024;28;20177;-65
2021/05/16 00:09:06;;;;;;;3.47;1.58;;;14.80;83.60;;;;;;5060362;28;20040;-65
2021/05/16 00:11:50;;;;;;;4.63;1.65;;;14.70;83.30;;;;;;5055149;28;20055;-64
2021/05/16 00:14:36;;;;;;;3.65;1.73;;;14.70;83.70;;;;;;5072840;28;20093;-65
2021/05/16 00:17:20;;;;;;;;;;;14.70;83.80;;;;;;5073981;28;20384;-65
2021/05/16 00:20:09;;;;;;;3.05;1.70;;;14.70;83.20;;;;;;5072814;28;19931;-65
2021/05/16 00:22:54;;;;;;;1.77;1.50;;;14.60;83.90;;;;;;5073755;28;20035;-64
2021/05/16 00:25:38;;;;;;;2.42;1.80;;;14.70;84.30;;;;;;5053560;28;20044;-65
2021/05/16 00:28:22;;;;;;;3.10;1.75;;;14.70;84.40;;;;;;5069179;28;20090;-64
2021/05/16 00:31:06;;;;;;;2.30;1.55;;;14.70;84.40;;;;;;5092898;28;20053;-64
2021/05/16 00:33:50;;;;;;;2.80;1.60;;;14.70;84.60;;;;;;5071193;28;20122;-64
2021/05/16 00:36:35;;;;;;;2.38;1.60;;;14.70;84.70;;;;;;5073538;28;20047;-65
2021/05/16 00:39:19;;;;;;;2.22;1.50;;;14.70;84.70;;;;;;5081356;28;20093;-64
2021/05/16 00:42:03;;;;;;;2.10;1.50;;;14.70;84.90;;;;;;5086268;28;20175;-64
2021/05/16 00:45:05;;;;;;;2.15;1.60;;;14.70;85.00;;;;;;5084880;28;20521;-65
2021/05/16 00:47:55;;;;;;;2.92;1.77;;;14.60;85.10;;;;;;5076288;28;20132;-65
2021/05/16 00:50:42;;;;;;;2.90;1.52;;;14.60;85.20;;;;;;5055687;28;20472;-65
2021/05/16 00:53:26;;;;;;;1.90;1.38;;;14.50;85.30;;;;;;5057214;28;20087;-65
2021/05/16 00:56:10;;;;;;;3.13;1.63;;;14.50;85.50;;;;;;5091402;28;20084;-65
2021/05/16 00:58:54;;;;;;;2.47;1.77;;;14.50;85.50;;;;;;5077671;28;20080;-65
2021/05/16 01:01:38;;;;;;;3.13;1.65;;;14.40;85.70;;;;;;5087807;28;20411;-65
2021/05/16 01:04:22;;;;;;;2.92;1.50;;;14.50;86.00;;;;;;5081458;28;20042;-65
2021/05/16 01:07:06;;;;;;;2.80;1.60;;;14.40;85.90;;;;;;5085000;28;20403;-65
2021/05/16 01:09:50;;;;;;;2.17;1.40;;;14.40;86.10;;;;;;5085537;28;20035;-64
2021/05/16 01:12:49;;;;;;;2.00;1.40;;;14.40;86.40;;;;;;5081458;28;20121;-65
2021/05/16 01:15:35;;;;;;;2.50;1.33;;;14.40;86.50;;;;;;5083051;28;20070;-64
2021/05/16 01:18:20;;;;;;;1.95;1.48;;;14.40;86.70;;;;;;5071568;28;20055;-65
2021/05/16 01:20:48;;;;;;;3.20;1.55;;;14.30;86.80;;;;;;5069490;28;20028;-65
2021/05/16 01:23:44;;;;;;;1.83;1.50;;;14.30;87.00;;;;;;5089757;28;20082;-65
2021/05/16 01:26:28;;;;;;;2.20;1.50;;;14.30;87.10;;;;;;5067507;28;20519;-65
2021/05/16 01:29:13;;;;;;;3.47;1.67;;;14.20;87.30;;;;;;5071160;28;20039;-65
2021/05/16 01:31:57;;;;;;;2.45;1.67;;;14.20;87.50;;;;;;5072477;28;20533;-65
2021/05/16 01:34:42;;;;;;;2.53;1.50;;;14.10;87.50;;;;;;5077904;28;20043;-65
2021/05/16 01:37:26;;;;;;;4.72;2.08;;;14.10;87.80;;;;;;5072440;28;20105;-64
2021/05/16 01:40:11;;;;;;;2.35;1.50;;;14.00;87.80;;;;;;5071362;28;20081;-64
2021/05/16 01:42:56;;;;;;;2.67;1.85;;;14.00;88.20;;;;;;5072590;28;20058;-64
2021/05/16 01:45:41;;;;;;;5.50;2.40;;;14.00;88.30;;;;;;5070834;28;20128;-64
2021/05/16 01:48:25;;;;;;;;;;;14.00;88.50;;;;;;5071467;28;20158;-64
2021/05/16 01:51:10;;;;;;;2.80;1.80;;;13.90;87.80;;;;;;5056060;28;20045;-64
2021/05/16 01:53:55;;;;;;;3.22;1.80;;;13.90;88.50;;;;;;5070818;28;20495;-64
2021/05/16 01:56:40;;;;;;;3.85;1.70;;;13.80;88.70;;;;;;5072129;28;20035;-64
2021/05/16 01:59:24;;;;;;;2.95;1.77;;;13.80;89.10;;;;;;5076030;28;20078;-64
2021/05/16 02:02:08;;;;;;;3.63;1.95;;;13.80;89.40;;;;;;5071640;28;20447;-65
2021/05/16 02:04:53;;;;;;;4.32;2.13;;;13.80;89.50;;;;;;5065511;28;20534;-64
2021/05/16 02:07:37;;;;;;;4.25;2.22;;;13.70;89.70;;;;;;5072135;28;20027;-64
2021/05/16 02:10:22;;;;;;;3.42;2.15;;;13.70;89.90;;;;;;5073130;28;20094;-65
2021/05/16 02:13:06;;;;;;;;;;;13.70;90.00;;;;;;5072230;28;20032;-65
2021/05/16 02:15:51;;;;;;;3.97;2.45;;;13.60;89.40;;;;;;5071145;28;19924;-65
2021/05/16 02:18:36;;;;;;;5.97;2.22;;;13.50;90.00;;;;;;5070272;28;20026;-64
2021/05/16 02:21:20;;;;;;;3.50;2.30;;;13.50;90.20;;;;;;5069089;28;20039;-64
2021/05/16 02:24:05;;;;;;;3.80;2.60;;;13.50;90.30;;;;;;5070953;28;20400;-64
2021/05/16 02:26:50;;;;;;;3.75;2.42;;;13.40;90.50;;;;;;5071502;28;20056;-64
2021/05/16 02:29:33;;;;;;;4.75;2.22;;;13.40;90.60;;;;;;5071873;28;20036;-68
2021/05/16 02:32:18;;;;;;;4.10;2.20;;;13.40;90.60;;;;;;5070440;28;20109;-68
2021/05/16 02:35:03;;;;;;;3.95;2.03;;;13.30;90.80;;;;;;5073111;28;20027;-68
2021/05/16 02:37:47;;;;;;;;;;;13.30;90.90;;;;;;5072381;28;20051;-68
2021/05/16 02:40:32;;;;;;;2.95;1.80;;;13.30;90.50;;;;;;5071215;28;19915;-68
2021/05/16 02:43:17;;;;;;;2.95;2.17;;;13.20;90.80;;;;;;5072132;28;20089;-68
2021/05/16 02:46:00;;;;;;;4.65;2.53;;;13.20;90.90;;;;;;5091330;28;20089;-68
2021/05/16 02:48:45;;;;;;;3.33;2.30;;;13.20;91.10;;;;;;5055292;28;20032;-68
2021/05/16 02:51:29;;;;;;;3.30;1.92;;;13.10;91.10;;;;;;5071308;28;20070;-68
2021/05/16 02:54:13;;;;;;;3.78;2.47;;;13.10;91.20;;;;;;5069457;28;20510;-68
2021/05/16 02:56:57;;;;;;;3.10;2.08;;;13.10;91.40;;;;;;5071172;28;20035;-68
2021/05/16 02:59:41;;;;;;;4.18;2.78;;;13.10;91.50;;;;;;5070499;28;20440;-68
2021/05/16 03:02:25;;;;;;;4.05;2.25;;;13.10;91.60;;;;;;5074100;28;20039;-68
2021/05/16 03:05:09;;;;;;;3.83;2.45;;;13.00;91.70;;;;;;5073595;28;20115;-68
2021/05/16 03:07:53;;;;;;;3.55;2.30;;;13.00;91.70;;;;;;5075135;28;20082;-68
2021/05/16 03:10:38;;;;;;;3.50;2.13;;;13.00;91.80;;;;;;5086826;28;20118;-68
2021/05/16 03:13:22;;;;;;;3.67;2.38;;;13.00;91.90;;;;;;5059347;28;20057;-68
2021/05/16 03:16:06;;;;;;;3.88;2.55;;;13.00;92.00;;;;;;5065468;28;20554;-69
2021/05/16 03:18:50;;;;;;;2.83;2.00;;;12.90;92.00;;;;;;5079277;28;20034;-69
2021/05/16 03:21:25;;;;;;;3.58;2.38;;;12.90;92.00;;;;;;5061391;28;20029;-69
2021/05/16 03:24:09;;;;;;;2.93;1.90;;;12.90;92.00;;;;;;5072719;28;20050;-68
2021/05/16 03:26:53;;;;;;;3.40;1.90;;;12.90;92.10;;;;;;5074155;28;20093;-68
2021/05/16 03:29:37;;;;;;;3.70;2.10;;;12.90;92.20;;;;;;5072963;28;20632;-69
2021/05/16 03:32:21;;;;;;;3.33;1.95;;;12.90;92.30;;;;;;5074706;28;20057;-68
2021/05/16 03:35:08;;;;;;;4.70;1.83;;;12.80;92.40;;;;;;5059871;28;20043;-68
2021/05/16 03:37:53;;;;;;;2.75;2.00;;;12.80;92.40;;;;;;5074744;28;20039;-68
2021/05/16 03:40:36;;;;;;;5.03;2.10;;;12.80;92.40;;;;;;5072621;28;20040;-69
2021/05/16 03:43:22;;;;;;;2.88;1.77;;;12.90;92.50;;;;;;5074442;28;20091;-69
2021/05/16 03:46:07;;;;;;;2.72;1.88;;;12.90;92.60;;;;;;5072174;28;20047;-68
2021/05/16 03:48:51;;;;;;;4.43;2.20;;;12.90;92.60;;;;;;5079777;28;20035;-69
2021/05/16 03:51:35;;;;;;;2.60;1.83;;;12.90;92.70;;;;;;5054505;28;20259;-69
2021/05/16 03:54:19;;;;;;;3.55;2.40;;;12.90;92.70;;;;;;5060609;28;20043;-69
2021/05/16 03:57:04;;;;;;;2.70;1.93;;;13.00;92.80;;;;;;5073955;28;20388;-69
2021/05/16 03:59:48;;;;;;;2.63;2.03;;;13.00;92.80;;;;;;5082305;28;20872;-71
2021/05/16 04:02:33;;;;;;;3.05;2.03;;;13.00;92.80;;;;;;5094448;28;20093;-71
2021/05/16 04:05:17;;;;;;;2.92;1.92;;;13.00;92.80;;;;;;5072998;28;20047;-71
2021/05/16 04:08:01;;;;;;;2.90;1.90;;;13.00;92.80;;;;;;5074109;28;20047;-71
2021/05/16 04:10:45;;;;;;;4.05;2.00;;;13.00;92.80;;;;;;5089879;28;20437;-71
2021/05/16 04:13:29;;;;;;;3.45;2.10;;;13.00;92.80;;;;;;5085354;28;20039;-71
2021/05/16 04:16:13;;;;;;;3.75;2.00;;;13.00;92.80;;;;;;5038660;28;20036;-71
2021/05/16 04:18:57;;;;;;;4.15;2.00;;;13.00;92.80;;;;;;5064171;28;20511;-70
2021/05/16 04:21:41;;;;;;;2.70;1.95;;;13.10;92.90;;;;;;5073746;28;20032;-70
2021/05/16 04:24:25;;;;;;;3.58;1.75;;;13.20;92.90;;;;;;5078460;28;20061;-70
2021/05/16 04:27:09;;;;;;;2.75;1.65;;;13.30;93.00;;;;;;5093932;28;20502;-70
2021/05/16 04:29:53;;;;;;;3.03;1.83;;;13.30;93.00;;;;;;5070718;28;20079;-70
2021/05/16 04:32:36;;;;;;;3.13;1.80;;;13.40;92.90;;;;;;5073467;28;20074;-70
2021/05/16 04:35:20;;;;;;;2.30;1.65;;;13.50;92.80;;;;;;5071310;28;20577;-70
2021/05/16 04:38:05;;;;;;;2.90;1.83;;;13.60;92.90;;;;;;5077044;28;20039;-71
2021/05/16 04:40:48;;;;;;;3.15;1.80;;;13.60;92.70;;;;;;5085627;28;20047;-69
2021/05/16 04:43:33;;;;;;;2.50;1.65;;;13.70;92.70;;;;;;5072337;28;20496;-75
2021/05/16 04:46:17;;;;;;;3.13;1.75;;;13.80;92.70;;;;;;5072910;28;20039;-73
2021/05/16 04:49:01;;;;;;;2.27;1.73;;;13.80;92.60;;;;;;5084053;28;20421;-73
2021/05/16 04:51:45;;;;;;;2.55;1.73;;;13.90;92.60;;;;;;5093969;28;20027;-73
2021/05/16 04:54:29;;;;;;;2.92;1.63;;;14.00;92.50;;;;;;5081619;28;20032;-74
2021/05/16 04:57:13;;;;;;;2.70;1.60;;;14.10;92.70;;;;;;5072911;28;20090;-71
2021/05/16 04:59:57;;;;;;;3.13;1.90;;;14.10;92.40;;;;;;5067955;28;20039;-72
2021/05/16 05:02:43;;;;;;;4.85;2.00;;;14.20;92.30;;;;;;5093002;28;20035;-70
2021/05/16 05:05:28;;;;;;;2.03;1.60;;;14.30;92.20;;;;;;5085116;28;20294;-70
2021/05/16 05:08:12;;;;;;;3.60;1.67;;;14.40;92.10;;;;;;5077976;28;20043;-70
2021/05/16 05:10:57;;;;;;;3.22;1.52;;;14.40;92.10;;;;;;5081414;28;20431;-70
2021/05/16 05:13:41;;;;;;;2.20;1.50;;;14.50;92.00;;;;;;5089334;28;20047;-70
2021/05/16 05:16:25;;;;;;;3.08;1.98;;;14.50;91.90;;;;;;5075635;28;20044;-70
2021/05/16 05:19:09;;;;;;;2.33;1.70;;;14.60;91.90;;;;;;5075901;28;20058;-70
2021/05/16 05:21:53;;;;;;;2.38;1.60;;;14.60;91.70;;;;;;5061908;28;20117;-69
2021/05/16 05:24:37;;;;;;;6.03;1.88;;;14.60;91.70;;;;;;5061163;28;20515;-69
2021/05/16 05:27:21;;;;;;;2.47;1.80;;;14.70;91.80;;;;;;5057340;28;20534;-70
2021/05/16 05:30:06;;;;;;;4.32;1.85;;;14.80;91.70;;;;;;5083375;28;20031;-69
2021/05/16 05:32:51;;;;;;;3.72;2.15;;;14.90;91.60;;;;;;5092593;28;20035;-69
2021/05/16 05:35:36;;;;;;;;;;;14.90;91.60;;;;;;5072750;28;20035;-69
2021/05/16 05:38:23;;;;;;;2.85;1.90;;;15.00;91.60;;;;;;5072080;28;19911;-69
2021/05/16 05:41:07;;;;;;;2.75;2.00;;;15.00;91.50;;;;;;5052363;28;20047;-70
2021/05/16 05:43:51;;;;;;;2.60;1.80;;;15.00;91.40;;;;;;5055131;28;20032;-70
2021/05/16 05:46:35;;;;;;;2.75;1.80;;;15.00;91.20;;;;;;5074391;28;20032;-70
2021/05/16 05:49:19;;;;;;;4.22;2.15;;;15.10;91.30;;;;;;5058526;28;20069;-69
2021/05/16 05:52:04;;;;;;;2.13;1.70;;;15.10;91.30;;;;;;5070877;28;20063;-68
2021/05/16 05:54:48;;;;;;;3.10;1.77;;;15.20;91.20;;;;;;5050046;28;20039;-69
2021/05/16 05:57:32;;;;;;;3.53;2.00;;;15.20;91.10;;;;;;5067318;28;20036;-69
2021/05/16 06:00:16;;;;;;;2.45;1.70;;;15.20;90.90;;;;;;5069924;28;20051;-68
2021/05/16 06:03:01;;;;;;;5.13;2.15;;;15.10;90.90;;;;;;5070205;28;20043;-69
2021/05/16 06:05:45;;;;;;;4.28;2.05;;;15.10;90.90;;;;;;5056832;28;20178;-70
2021/05/16 06:08:29;;;;;;;2.33;1.80;;;15.10;90.90;;;;;;5070203;28;20569;-70
2021/05/16 06:11:13;;;;;;;3.28;1.80;;;15.20;90.90;;;;;;5035898;28;20098;-70
2021/05/16 06:13:57;;;;;;;4.40;2.53;;;15.20;90.90;;;;;;5055244;28;20058;-70
2021/05/16 06:16:41;;;;;;;3.08;1.98;;;15.20;90.90;;;;;;5070747;28;20063;-69
2021/05/16 06:19:25;;;;;;;3.77;1.63;;;15.30;90.90;;;;;;5063141;28;20103;-69
2021/05/16 06:22:13;;;;;;;3.03;1.90;;;15.40;90.90;;;;;;5055392;28;20356;-69
2021/05/16 06:24:57;;;;;;;4.13;1.77;;;15.40;90.80;;;;;;5073581;28;20044;-69
2021/05/16 06:27:42;;;;;;;2.63;1.73;;;15.50;90.80;;;;;;5062624;28;20117;-69
2021/05/16 06:30:27;;;;;;;2.30;1.77;;;15.50;90.70;;;;;;5069817;28;20511;-69
2021/05/16 06:33:11;;;;;;;;;;;15.60;90.50;;;;;;5056463;28;20555;-69
2021/05/16 06:35:55;;;;;;;3.15;1.60;;;15.70;90.50;;;;;;5090871;28;20302;-69
2021/05/16 06:38:39;;;;;;;2.33;1.60;;;15.70;90.20;;;;;;5087704;28;20038;-70
2021/05/16 06:41:24;;;;;;;2.80;1.55;;;15.70;90.00;;;;;;5071300;28;20174;-69
2021/05/16 06:44:08;;;;;;;2.53;1.70;;;15.80;90.00;;;;;;5074372;28;20463;-71
2021/05/16 06:46:52;;;;;;;2.15;1.42;;;15.90;90.00;;;;;;5083314;28;20035;-71
2021/05/16 06:49:37;;;;;;;2.90;1.40;;;15.90;90.20;;;;;;5069218;28;20043;-68
2021/05/16 06:52:21;;;;;;;4.32;1.52;;;16.10;89.90;;;;;;5070677;28;20051;-70
2021/05/16 06:55:07;;;;;;;3.13;1.38;;;16.20;89.50;;;;;;5064412;28;20548;-70
2021/05/16 06:57:51;;;;;;;2.10;1.42;;;16.30;88.80;;;;;;5054794;28;20547;-73
2021/05/16 07:00:35;;;;;;;3.20;1.33;;;16.30;88.50;;;;;;5061244;28;20117;-73
2021/05/16 07:03:19;;;;;;;2.28;1.30;;;16.30;88.20;;;;;;5071314;28;20023;-73
2021/05/16 07:06:07;;;;;;;3.38;1.70;;;16.40;87.80;;;;;;5051216;28;20099;-74
2021/05/16 07:08:52;;;;;;;3.00;1.23;;;16.40;87.70;;;;;;5062399;28;20517;-74
2021/05/16 07:11:36;;;;;;;2.20;1.40;;;16.30;88.20;;;;;;5071228;28;20027;-74
2021/05/16 07:14:20;;;;;;;3.05;1.65;;;16.30;88.70;;;;;;5062800;28;20047;-73
2021/05/16 07:17:04;;;;;;;2.67;1.73;;;16.30;89.60;;;;;;5065019;28;20036;-73
2021/05/16 07:19:48;;;;;;;4.13;1.70;;;16.20;90.10;;;;;;5069892;28;20043;-72
2021/05/16 07:22:32;;;;;;;2.35;1.40;;;16.20;90.40;;;;;;5065544;28;20517;-72
2021/05/16 07:25:17;;;;;;;2.67;1.77;;;16.20;90.60;;;;;;5084396;28;20097;-72
2021/05/16 07:28:01;;;;;;;3.30;1.52;;;16.10;90.80;;;;;;5082517;28;20396;-72
2021/05/16 07:30:45;;;;;;;2.40;1.53;;;16.10;91.00;;;;;;5069498;28;20055;-73
2021/05/16 07:33:29;;;;;;;4.60;2.10;;;16.10;91.20;;;;;;5066252;28;20039;-73
2021/05/16 07:36:14;;;;;;;2.95;1.55;;;16.10;91.40;;;;;;5051027;28;20167;-73
2021/05/16 07:38:58;;;;;;;2.03;1.58;;;16.20;91.80;;;;;;5061515;28;20089;-74
2021/05/16 07:41:42;;;;;;;3.22;2.00;;;16.30;92.00;;;;;;5067439;28;20051;-74
2021/05/16 07:44:26;;;;;;;8.02;2.28;;;16.30;92.00;;;;;;5075259;28;20035;-74
2021/05/16 07:47:11;;;;;;;2.33;1.63;;;16.40;92.20;;;;;;5078646;28;20046;-75
2021/05/16 07:49:55;;;;;;;3.57;1.63;;;16.50;92.20;;;;;;5076822;28;20155;-73
2021/05/16 07:52:39;;;;;;;2.80;1.90;;;16.60;92.00;;;;;;5074415;28;20043;-73
2021/05/16 07:55:23;;;;;;;3.00;1.80;;;16.70;92.00;;;;;;5088703;28;20077;-73
2021/05/16 07:58:07;;;;;;;3.50;2.00;;;16.70;91.90;;;;;;5086866;28;20044;-73
2021/05/16 08:00:51;;;;;;;6.25;1.92;;;16.80;91.90;;;;;;5086215;28;20349;-73
2021/05/16 08:03:35;;;;;;;2.33;1.67;;;16.80;91.90;;;;;;5086657;28;20034;-74
2021/05/16 08:06:20;;;;;;;4.50;2.13;;;16.90;91.90;;;;;;5070577;28;20102;-74
2021/05/16 08:09:04;;;;;;;4.75;2.00;;;16.90;91.80;;;;;;5071534;28;20048;-74
2021/05/16 08:11:48;;;;;;;3.28;2.05;;;16.90;91.90;;;;;;5076388;28;20040;-74
2021/05/16 08:14:32;;;;;;;3.08;1.70;;;17.00;91.90;;;;;;5068336;28;20040;-73
2021/05/16 08:17:16;;;;;;;7.00;1.77;;;17.00;92.10;;;;;;5046761;28;20030;-70
2021/05/16 08:20:04;;;;;;;2.63;1.60;;;17.10;91.90;;;;;;5084949;28;20082;-73
2021/05/16 08:22:49;;;;;;;2.00;1.30;;;17.20;91.60;;;;;;5073509;28;20047;-71
2021/05/16 08:25:34;;;;;;;2.67;1.30;;;17.30;91.20;;;;;;5057165;28;20048;-71
2021/05/16 08:28:18;;;;;;;;;;;17.40;91.00;;;;;;5075041;28;20097;-72
2021/05/16 08:30:44;;;;;;;2.38;1.42;;;17.40;91.00;;;;;;5074359;28;20415;-69
2021/05/16 08:33:09;;;;;;;2.17;1.40;;;17.50;91.10;;;;;;5080150;28;20107;-73
2021/05/16 08:35:35;;;;;;;2.28;1.42;;;17.60;90.70;;;;;;5070238;28;20040;-70
2021/05/16 08:38:02;;;;;;;2.00;1.13;;;17.60;90.60;;;;;;5075903;28;20036;-70
2021/05/16 08:40:30;;;;;;;2.08;1.33;;;17.70;90.40;;;;;;5063822;28;20036;-72
2021/05/16 08:42:57;;;;;;;2.00;1.30;;;17.80;90.10;;;;;;5072686;28;20033;-71
2021/05/16 08:45:22;;;;;;;1.58;1.20;;;17.90;90.00;;;;;;5067472;28;20044;-73
2021/05/16 08:48:07;;;;;;;3.63;1.43;;;17.90;89.40;;;;;;5063918;28;20383;-71
2021/05/16 08:50:51;;;;;;;2.60;1.10;;;17.90;89.20;;;;;;5063802;28;20035;-72
2021/05/16 08:53:16;;;;;;;3.58;1.52;;;18.00;89.50;;;;;;5069558;28;20028;-70
2021/05/16 08:55:42;;;;;;;1.80;1.27;;;18.00;88.70;;;;;;5066326;28;20025;-71
2021/05/16 08:58:08;;;;;;;1.95;1.10;;;18.10;88.70;;;;;;5076697;28;20230;-72
2021/05/16 09:00:43;;;;;;;2.35;1.20;;;18.20;87.90;;;;;;5064455;28;20049;-74
2021/05/16 09:03:16;;;;;;;2.03;1.38;;;18.30;87.90;;;;;;5068883;28;20036;-71
2021/05/16 09:05:51;;;;;;;4.22;1.15;;;18.30;86.80;;;;;;5070148;28;20408;-75
2021/05/16 09:08:22;;;;;;;1.88;1.25;;;18.40;86.40;;;;;;5072821;28;20020;-72
2021/05/16 09:10:55;;;;;;;1.85;1.35;;;18.40;85.10;;;;;;5086698;28;20480;-72
2021/05/16 09:13:24;;;;;;;1.48;1.27;;;18.40;84.60;;;;;;5070354;28;20025;-71
2021/05/16 09:16:11;;;;;;;2.28;1.50;;;18.30;84.60;;;;;;5059531;28;20040;-73
2021/05/16 09:18:52;;;;;;;1.80;1.30;;;18.30;84.80;;;;;;5070430;28;20024;-70
2021/05/16 09:21:30;;;;;;;2.38;1.33;;;18.20;84.90;;;;;;5086935;28;20116;-70
2021/05/16 09:24:02;;;;;;;1.75;1.27;;;18.20;84.50;;;;;;5070988;28;20142;-69
2021/05/16 09:26:35;;;;;;;2.22;1.40;;;18.20;84.60;;;;;;5070878;28;20094;-72
2021/05/16 09:29:21;;;;;;;2.80;1.45;;;18.10;84.70;;;;;;5074903;28;20123;-69
2021/05/16 09:31:47;;;;;;;3.42;1.35;;;18.10;85.50;;;;;;5078040;28;20032;-67
2021/05/16 09:34:13;;;;;;;1.77;1.25;;;18.10;85.60;;;;;;5070152;28;20029;-69
2021/05/16 09:36:40;;;;;;;2.75;1.70;;;18.10;85.60;;;;;;5065291;28;20520;-71
2021/05/16 09:39:22;;;;;;;4.57;1.40;;;18.20;86.00;;;;;;5061275;28;20024;-70
2021/05/16 09:42:03;;;;;;;2.15;1.50;;;18.40;85.80;;;;;;5077877;28;20044;-69
2021/05/16 09:44:48;;;;;;;3.65;1.60;;;18.50;85.60;;;;;;5069940;28;20032;-72
2021/05/16 09:47:20;;;;;;;2.20;1.50;;;18.70;85.60;;;;;;5069961;28;20052;-68
2021/05/16 09:49:48;;;;;;;4.07;1.60;;;18.90;85.10;;;;;;5070150;28;20032;-71
2021/05/16 09:52:25;;;;;;;1.85;1.40;;;19.10;83.90;;;;;;5072293;28;20035;-67
2021/05/16 09:55:05;;;;;;;4.35;1.50;;;19.20;83.00;;;;;;5070300;28;20028;-69
2021/05/16 09:57:41;;;;;;;3.92;1.40;;;19.30;82.40;;;;;;5051815;28;20024;-68
2021/05/16 10:00:07;;;;;;;2.80;1.27;;;19.40;82.10;;;;;;5071574;28;20044;-68
2021/05/16 10:02:33;;;;;;;3.35;1.17;;;19.40;80.60;;;;;;5068445;28;20040;-68
2021/05/16 10:05:01;;;;;;;6.50;1.48;;;19.40;80.00;;;;;;5071889;28;20036;-68
2021/05/16 10:07:28;;;;;;;2.85;1.77;;;19.40;79.40;;;;;;5036533;28;20013;-69
2021/05/16 10:09:54;;;;;;;2.80;1.60;;;19.50;78.60;;;;;;5068848;28;20035;-68
2021/05/16 10:12:22;;;;;;;3.47;1.70;;;19.40;79.40;;;;;;5070931;28;20563;-69
2021/05/16 10:14:52;;;;;;;3.92;1.40;;;19.40;79.70;;;;;;5071852;28;20063;-68
2021/05/16 10:17:20;;;;;;;3.97;1.50;;;19.30;80.70;;;;;;5069944;28;20112;-68
2021/05/16 10:19:46;;;;;;;3.60;1.60;;;19.20;80.90;;;;;;5069416;28;20082;-68
2021/05/16 10:22:15;;;;;;;2.60;1.20;;;19.20;81.50;;;;;;5053194;28;20487;-68
2021/05/16 10:24:46;;;;;;;3.50;1.65;;;19.20;81.80;;;;;;5070770;28;20071;-68
2021/05/16 10:27:22;;;;;;;2.20;1.20;;;19.20;82.20;;;;;;5071358;28;20032;-69
2021/05/16 10:29:58;;;;;;;3.88;1.70;;;19.30;82.90;;;;;;5071512;28;20034;-69
2021/05/16 10:32:29;;;;;;;3.33;1.50;;;19.30;82.90;;;;;;5071428;28;20082;-69
2021/05/16 10:34:59;;;;;;;4.18;2.05;;;19.40;83.20;;;;;;5071055;28;20025;-69
2021/05/16 10:37:46;;;;;;;4.28;1.77;;;19.60;83.10;;;;;;5071352;28;20067;-69
2021/05/16 10:40:12;;;;;;;4.05;1.90;;;19.70;82.80;;;;;;5071047;28;20058;-69
2021/05/16 10:42:39;;;;;;;3.97;1.90;;;19.90;81.80;;;;;;5070765;28;20040;-69
2021/05/16 10:45:12;;;;;;;4.22;1.67;;;20.00;80.70;;;;;;5070620;28;20052;-69
2021/05/16 10:47:41;;;;;;;4.13;1.65;;;20.10;80.20;;;;;;5068782;28;20036;-69
2021/05/16 10:50:11;;;;;;;5.53;1.73;;;20.20;78.60;;;;;;5070641;28;20071;-69
2021/05/16 10:52:37;;;;;;;4.47;2.00;;;20.30;77.10;;;;;;5070383;28;20032;-69
2021/05/16 10:55:07;;;;;;;3.30;1.63;;;20.30;76.60;;;;;;5070900;28;20098;-67
2021/05/16 10:57:40;;;;;;;3.95;1.73;;;20.40;74.90;;;;;;5052816;28;20047;-68
2021/05/16 11:00:30;;;;;;;6.05;1.50;;;20.30;73.60;;;;;;5070753;28;20576;-68
2021/05/16 11:03:13;;;;;;;3.58;1.35;;;20.30;72.10;;;;;;5056296;28;20032;-68
2021/05/16 11:05:49;;;;;;;4.55;1.40;;;20.20;70.60;;;;;;5063492;28;20468;-68
2021/05/16 11:08:18;;;;;;;4.53;1.90;;;20.20;69.80;;;;;;5074216;28;20039;-68
2021/05/16 11:10:45;;;;;;;6.82;1.73;;;20.10;70.80;;;;;;5089937;28;20055;-68
2021/05/16 11:13:28;;;;;;;4.28;1.50;;;20.10;71.20;;;;;;5069860;28;20476;-69
2021/05/16 11:15:54;;;;;;;7.57;2.10;;;20.00;70.80;;;;;;5070615;28;20025;-69
2021/05/16 11:18:24;;;;;;;2.92;1.60;;;19.90;70.10;;;;;;5070333;28;20028;-68
2021/05/16 11:20:57;;;;;;;3.30;1.30;;;19.90;70.60;;;;;;5071500;28;20060;-69
2021/05/16 11:23:25;;;;;;;3.55;1.35;;;19.90;71.00;;;;;;5074434;28;20032;-69
2021/05/16 11:26:11;;;;;;;5.97;1.60;;;20.00;71.20;;;;;;5074022;28;20040;-69
2021/05/16 11:28:39;;;;;;;5.05;1.75;;;20.00;71.30;;;;;;5074219;28;20031;-68
2021/05/16 11:31:09;;;;;;;3.53;1.42;;;20.10;71.50;;;;;;5064124;28;20039;-68
2021/05/16 11:33:37;;;;;;;6.05;2.10;;;20.20;71.50;;;;;;5074740;28;20029;-68
2021/05/16 11:36:11;;;;;;;4.35;1.70;;;20.30;70.70;;;;;;5073826;28;20078;-69
2021/05/16 11:38:43;;;;;;;4.65;1.70;;;20.30;70.70;;;;;;5074457;28;20040;-69
2021/05/16 11:41:39;;;;;;;7.10;2.25;;;20.40;69.40;;;;;;5062901;28;20452;-68
2021/05/16 11:44:10;;;;;;;4.88;1.95;;;20.40;68.20;;;;;;5059036;28;20075;-68
2021/05/16 11:46:39;;;;;;;4.32;1.60;;;20.50;68.60;;;;;;5075041;28;20457;-68
2021/05/16 11:49:05;;;;;;;4.28;1.75;;;20.60;66.90;;;;;;5074099;28;20020;-70
2021/05/16 11:51:32;;;;;;;4.70;1.70;;;20.60;66.40;;;;;;5087316;28;20507;-68
2021/05/16 11:54:02;;;;;;;2.80;1.55;;;20.60;66.40;;;;;;5080732;28;20032;-68
2021/05/16 11:56:39;;;;;;;4.15;1.65;;;20.70;66.40;;;;;;5078675;28;20123;-68
2021/05/16 11:59:06;;;;;;;3.35;1.55;;;20.70;65.20;;;;;;5078612;28;20024;-68
2021/05/16 12:01:39;;;;;;;4.25;1.60;;;20.80;65.10;;;;;;5074354;28;20044;-67
2021/05/16 12:04:17;;;;;;;4.72;1.60;;;20.80;66.00;;;;;;5078624;28;20120;-68
2021/05/16 12:06:43;;;;;;;2.83;1.38;;;21.00;65.50;;;;;;5087526;28;20036;-68
2021/05/16 12:09:14;;;;;;;2.45;1.23;;;21.10;62.30;;;;;;5083717;28;20028;-69
2021/05/16 12:11:41;;;;;;;3.42;1.48;;;21.20;61.80;;;;;;5087406;28;20039;-68
2021/05/16 12:14:26;;;;;;;3.30;1.40;;;21.20;59.90;;;;;;5078973;28;20024;-68
2021/05/16 12:16:52;;;;;;;3.10;1.52;;;21.30;58.70;;;;;;5072342;28;20035;-68
2021/05/16 12:19:24;;;;;;;3.00;1.10;;;21.40;58.40;;;;;;5073865;28;20032;-68
2021/05/16 12:21:51;;;;;;;6.60;1.50;;;21.40;58.00;;;;;;5074274;28;20486;-69
2021/05/16 12:24:21;;;;;;;1.55;1.00;;;21.30;57.30;;;;;;5072478;28;20052;-68
2021/05/16 12:26:48;;;;;;;4.75;1.38;;;21.20;58.10;;;;;;5073373;28;20141;-68
2021/05/16 12:29:15;;;;;;;4.32;1.27;;;21.20;58.50;;;;;;5073101;28;20454;-68
2021/05/16 12:31:41;;;;;;;2.80;1.55;;;21.20;58.00;;;;;;5078310;28;20039;-68
2021/05/16 12:34:07;;;;;;;1.85;0.98;;;21.10;57.20;;;;;;5079371;28;20028;-68
2021/05/16 12:36:58;;;;;;;3.85;1.48;;;21.00;57.30;;;;;;5072283;28;20029;-68
2021/05/16 12:39:40;;;;;;;2.85;1.42;;;20.90;58.50;;;;;;5072169;28;20388;-68
2021/05/16 12:42:25;;;;;;;1.83;1.10;;;20.90;58.60;;;;;;5072255;28;20040;-67
2021/05/16 12:44:52;;;;;;;2.03;1.30;;;20.80;59.20;;;;;;5070978;28;20439;-68
2021/05/16 12:47:25;;;;;;;3.38;1.40;;;20.80;58.60;;;;;;5072204;28;20037;-69
2021/05/16 12:50:06;;;;;;;2.67;1.23;;;20.70;58.00;;;;;;5070661;28;20414;-69
2021/05/16 12:52:32;;;;;;;3.72;1.50;;;20.60;57.30;;;;;;5059842;28;20090;-70
2021/05/16 12:54:57;;;;;;;5.65;1.55;;;20.50;59.10;;;;;;5070913;28;20032;-69
2021/05/16 12:57:43;;;;;;;1.73;1.30;;;20.30;60.40;;;;;;5071204;28;20020;-69
2021/05/16 13:00:09;;;;;;;3.72;1.30;;;20.10;61.00;;;;;;5082526;28;20407;-69
2021/05/16 13:02:38;;;;;;;3.72;1.60;;;19.90;61.70;;;;;;5072304;28;20028;-69
2021/05/16 13:05:14;;;;;;;6.60;1.65;;;19.70;62.70;;;;;;5069589;28;20025;-68
2021/05/16 13:07:52;;;;;;;3.70;1.55;;;19.50;64.50;;;;;;5068185;28;20491;-69
2021/05/16 13:10:28;;;;;;;3.42;1.33;;;19.30;66.10;;;;;;5065915;28;20029;-69
2021/05/16 13:12:53;;;;;;;3.90;1.20;;;19.20;66.40;;;;;;5066756;28;20039;-69
2021/05/16 13:15:36;;;;;;;6.03;1.77;;;19.10;66.60;;;;;;5066499;28;20036;-70
2021/05/16 13:18:24;;;;;;;2.10;1.30;;;18.90;68.10;;;;;;5072106;28;20407;-70
2021/05/16 13:20:50;;;;;;;2.50;1.65;;;18.90;68.80;;;;;;5066544;28;20059;-69
2021/05/16 13:23:27;;;;;;;2.42;1.58;;;18.70;70.40;;;;;;5070552;28;20028;-69
2021/05/16 13:25:55;;;;;;;3.47;1.70;;;18.70;71.40;;;;;;5091107;28;20040;-69
2021/05/16 13:28:21;;;;;;;3.08;1.60;;;18.70;71.90;;;;;;5071065;28;20024;-69
2021/05/16 13:30:54;;;;;;;3.97;1.80;;;18.70;72.50;;;;;;5077050;28;20032;-69
2021/05/16 13:33:20;;;;;;;7.03;1.95;;;18.80;72.90;;;;;;5071182;28;20115;-69
2021/05/16 13:35:46;;;;;;;4.35;1.90;;;18.90;73.00;;;;;;5053926;28;20476;-69
2021/05/16 13:38:12;;;;;;;4.65;1.88;;;18.90;73.50;;;;;;5066674;28;20070;-69
2021/05/16 13:40:38;;;;;;;6.43;2.10;;;19.00;73.50;;;;;;5069597;28;20120;-69
2021/05/16 13:43:03;;;;;;;4.72;1.80;;;19.10;73.60;;;;;;5070825;28;20162;-69
2021/05/16 13:45:29;;;;;;;3.45;1.65;;;19.30;72.60;;;;;;5079659;28;20453;-69
2021/05/16 13:47:55;;;;;;;3.30;1.45;;;19.60;72.20;;;;;;5070118;28;20028;-70
2021/05/16 13:50:20;;;;;;;2.13;1.20;;;19.80;71.10;;;;;;5068610;28;20033;-69